Time;durP1;ratioP1;P1;durP2;ratioP2;P2;SDS_P1;SDS_P2;PMS_P1;PMS_P2;Temp;Humidity;BMP_temperature;BMP_pressure;BME280_temperature;BME280_humidity;BME280_pressure;Samples;Min_cycle;Max_cycle;Signal;HPM_P1;HPM_P2
2023/06/07 00:01:50;;;;;;;0.80;0.80;;;10.60;99.90;;;;;;4933011;29;20069;-72
2023/06/07 00:04:15;;;;;;;0.80;0.52;;;10.50;99.90;;;;;;4933949;29;20416;-72
2023/06/07 00:06:41;;;;;;;0.40;0.40;;;10.60;99.90;;;;;;4938788;29;20103;-73
2023/06/07 00:09:08;;;;;;;0.35;0.35;;;10.60;99.90;;;;;;4943087;29;20130;-72
2023/06/07 00:11:34;;;;;;;0.50;0.50;;;10.50;99.90;;;;;;4941816;29;20493;-73
2023/06/07 00:14:00;;;;;;;0.45;0.45;;;10.50;99.90;;;;;;4942737;28;20039;-73
2023/06/07 00:16:26;;;;;;;0.30;0.30;;;10.50;99.90;;;;;;4936013;28;20052;-73
2023/06/07 00:18:52;;;;;;;0.45;0.38;;;10.40;99.90;;;;;;4931870;29;20052;-72
2023/06/07 00:21:20;;;;;;;0.45;0.45;;;10.40;99.90;;;;;;4942456;28;20039;-73
2023/06/07 00:23:48;;;;;;;0.60;0.60;;;10.30;99.90;;;;;;4935101;28;20515;-72
2023/06/07 00:26:14;;;;;;;;;;;10.20;99.90;;;;;;4940852;29;20055;-72
2023/06/07 00:28:40;;;;;;;0.60;0.60;;;10.20;99.90;;;;;;4942001;28;19923;-73
2023/06/07 00:31:06;;;;;;;2.25;0.60;;;10.10;99.90;;;;;;4931053;29;20071;-72
2023/06/07 00:33:32;;;;;;;2.05;1.27;;;10.10;99.90;;;;;;4938493;29;20036;-73
2023/06/07 00:35:58;;;;;;;0.60;0.60;;;10.10;99.90;;;;;;4926607;29;20099;-72
2023/06/07 00:38:24;;;;;;;0.40;0.40;;;10.00;99.90;;;;;;4932833;29;20047;-73
2023/06/07 00:40:50;;;;;;;0.47;0.47;;;10.00;99.90;;;;;;4942610;29;20083;-72
2023/06/07 00:43:15;;;;;;;1.42;1.33;;;10.00;99.90;;;;;;4939613;29;20135;-72
2023/06/07 00:45:41;;;;;;;0.30;0.30;;;10.10;99.90;;;;;;4942835;28;20102;-73
2023/06/07 00:48:07;;;;;;;0.40;0.40;;;10.00;99.90;;;;;;4939748;28;20753;-73
2023/06/07 00:50:34;;;;;;;0.52;0.52;;;10.00;99.90;;;;;;4938105;29;20032;-73
2023/06/07 00:53:00;;;;;;;0.55;0.55;;;10.00;99.90;;;;;;4925882;29;20527;-73
2023/06/07 00:55:26;;;;;;;1.88;1.38;;;10.00;99.90;;;;;;4933199;29;20083;-72
2023/06/07 00:57:53;;;;;;;0.50;0.50;;;10.00;99.90;;;;;;4946260;28;20444;-72
2023/06/07 01:00:20;;;;;;;0.30;0.30;;;10.00;99.90;;;;;;4939935;29;20087;-73
2023/06/07 01:02:47;;;;;;;1.30;0.85;;;10.00;99.90;;;;;;4940677;29;20456;-73
2023/06/07 01:05:17;;;;;;;0.40;0.40;;;10.00;99.90;;;;;;4939146;28;20047;-73
2023/06/07 01:07:47;;;;;;;0.45;0.45;;;10.00;99.90;;;;;;4935004;28;20138;-72
2023/06/07 01:10:14;;;;;;;0.40;0.40;;;10.00;99.90;;;;;;4934557;29;20051;-73
2023/06/07 01:12:44;;;;;;;0.30;0.30;;;9.90;99.90;;;;;;4939245;29;20047;-72
2023/06/07 01:15:12;;;;;;;0.70;0.70;;;9.90;99.90;;;;;;4943657;29;20070;-72
2023/06/07 01:17:42;;;;;;;0.40;0.40;;;9.90;99.90;;;;;;4927660;29;20043;-73
2023/06/07 01:20:13;;;;;;;0.90;0.60;;;9.90;99.90;;;;;;4939336;28;20053;-73
2023/06/07 01:22:44;;;;;;;0.40;0.40;;;9.90;99.90;;;;;;4923905;29;20047;-72
2023/06/07 01:25:10;;;;;;;0.95;0.90;;;9.90;99.90;;;;;;4936994;29;20078;-72
2023/06/07 01:27:39;;;;;;;3.78;0.47;;;9.90;99.90;;;;;;4935520;29;20083;-72
2023/06/07 01:30:08;;;;;;;0.47;0.47;;;9.90;99.90;;;;;;4934550;28;20052;-72
2023/06/07 01:32:34;;;;;;;0.40;0.40;;;9.90;99.90;;;;;;4941784;29;20047;-72
2023/06/07 01:35:02;;;;;;;0.30;0.30;;;9.90;99.90;;;;;;4941369;29;20049;-73
2023/06/07 01:37:29;;;;;;;0.70;0.70;;;9.90;99.90;;;;;;4930125;29;20501;-72
2023/06/07 01:39:56;;;;;;;0.40;0.40;;;9.90;99.90;;;;;;4937923;29;20042;-72
2023/06/07 01:42:22;;;;;;;0.28;0.28;;;9.90;99.90;;;;;;4942059;29;20047;-73
2023/06/07 01:44:48;;;;;;;0.38;0.38;;;9.90;99.90;;;;;;4942230;29;20050;-73
2023/06/07 01:47:14;;;;;;;0.30;0.30;;;9.90;99.90;;;;;;4940360;29;20430;-73
2023/06/07 01:49:41;;;;;;;0.60;0.60;;;9.90;99.90;;;;;;4942352;29;20039;-73
2023/06/07 01:52:07;;;;;;;0.40;0.40;;;9.90;99.90;;;;;;4938984;29;20047;-72
2023/06/07 01:54:33;;;;;;;0.63;0.60;;;9.90;99.90;;;;;;4935499;29;20414;-72
2023/06/07 01:57:11;;;;;;;0.30;0.30;;;9.90;99.90;;;;;;4946971;29;20039;-73
2023/06/07 02:00:08;;;;;;;0.30;0.30;;;9.90;99.90;;;;;;4930721;29;20051;-73
2023/06/07 02:02:45;;;;;;;0.35;0.35;;;9.90;99.90;;;;;;4939090;29;20458;-72
2023/06/07 02:05:20;;;;;;;0.38;0.38;;;9.90;99.90;;;;;;4942449;29;20111;-72
2023/06/07 02:07:49;;;;;;;1.38;0.60;;;10.00;99.90;;;;;;4945509;29;20086;-72
2023/06/07 02:10:20;;;;;;;0.43;0.43;;;10.00;99.90;;;;;;4940393;28;20502;-72
2023/06/07 02:12:47;;;;;;;0.30;0.30;;;10.00;99.90;;;;;;4928276;29;20047;-72
2023/06/07 02:15:12;;;;;;;0.30;0.30;;;10.00;99.90;;;;;;4941287;29;20492;-72
2023/06/07 02:17:57;;;;;;;0.30;0.30;;;10.00;99.90;;;;;;4945009;29;20049;-73
2023/06/07 02:20:26;;;;;;;0.40;0.40;;;10.00;99.90;;;;;;4942963;28;20513;-73
2023/06/07 02:22:52;;;;;;;0.60;0.60;;;10.00;99.90;;;;;;4937861;29;20437;-73
2023/06/07 02:25:18;;;;;;;0.45;0.45;;;10.10;99.90;;;;;;4945821;28;20138;-73
2023/06/07 02:27:43;;;;;;;0.40;0.40;;;10.10;99.90;;;;;;4931307;29;20628;-73
2023/06/07 02:30:09;;;;;;;0.50;0.50;;;10.00;99.90;;;;;;4933117;29;20048;-73
2023/06/07 02:32:35;;;;;;;0.50;0.50;;;10.10;99.90;;;;;;4940493;29;20122;-73
2023/06/07 02:35:01;;;;;;;0.32;0.32;;;10.10;99.90;;;;;;4936659;28;20138;-73
2023/06/07 02:37:28;;;;;;;0.40;0.40;;;10.10;99.90;;;;;;4933538;29;20454;-73
2023/06/07 02:39:54;;;;;;;0.40;0.40;;;10.10;99.90;;;;;;4940830;28;20134;-73
2023/06/07 02:42:19;;;;;;;1.45;1.05;;;10.10;99.90;;;;;;4939729;29;20134;-73
2023/06/07 02:44:45;;;;;;;0.47;0.47;;;10.20;99.90;;;;;;4941707;29;20881;-73
2023/06/07 02:47:10;;;;;;;0.73;0.73;;;10.20;99.90;;;;;;4933696;29;20508;-73
2023/06/07 02:49:36;;;;;;;0.65;0.65;;;10.10;99.90;;;;;;4935379;29;20110;-73
2023/06/07 02:52:02;;;;;;;1.35;1.25;;;10.20;99.90;;;;;;4941765;29;20135;-72
2023/06/07 02:54:27;;;;;;;0.40;0.40;;;10.20;99.90;;;;;;4943280;29;20062;-73
2023/06/07 02:56:53;;;;;;;0.30;0.30;;;10.10;99.90;;;;;;4940153;29;20046;-73
2023/06/07 02:59:19;;;;;;;0.65;0.50;;;10.10;99.90;;;;;;4937857;29;20500;-72
2023/06/07 03:01:46;;;;;;;1.75;1.30;;;10.10;99.90;;;;;;4937442;29;20472;-72
2023/06/07 03:04:11;;;;;;;0.40;0.32;;;10.00;99.90;;;;;;4927917;29;20695;-72
2023/06/07 03:06:40;;;;;;;0.60;0.60;;;10.00;99.90;;;;;;4937558;29;20133;-73
2023/06/07 03:09:06;;;;;;;0.50;0.50;;;10.00;99.90;;;;;;4939190;29;20064;-73
2023/06/07 03:11:32;;;;;;;1.02;1.02;;;10.00;99.90;;;;;;4943272;28;20043;-73
2023/06/07 03:13:57;;;;;;;0.30;0.30;;;10.10;99.90;;;;;;4938858;29;20100;-73
2023/06/07 03:16:23;;;;;;;1.05;1.05;;;10.10;99.90;;;;;;4925527;29;20047;-73
2023/06/07 03:18:49;;;;;;;1.17;0.75;;;10.10;99.90;;;;;;4932826;29;20043;-73
2023/06/07 03:21:15;;;;;;;0.50;0.50;;;10.10;99.90;;;;;;4931817;29;20134;-73
2023/06/07 03:23:41;;;;;;;0.50;0.50;;;10.20;99.90;;;;;;4941677;29;20039;-73
2023/06/07 03:26:08;;;;;;;0.40;0.40;;;10.10;99.90;;;;;;4932861;29;20050;-72
2023/06/07 03:28:34;;;;;;;0.35;0.35;;;10.20;99.90;;;;;;4929547;29;20047;-72
2023/06/07 03:31:00;;;;;;;0.47;0.47;;;10.20;99.90;;;;;;4929449;29;20625;-72
2023/06/07 03:33:25;;;;;;;0.50;0.50;;;10.30;99.90;;;;;;4938537;29;20055;-72
2023/06/07 03:35:51;;;;;;;1.10;1.00;;;10.30;99.90;;;;;;4926021;29;20047;-72
2023/06/07 03:38:17;;;;;;;0.93;0.93;;;10.30;99.90;;;;;;4936039;29;20082;-72
2023/06/07 03:40:42;;;;;;;0.60;0.60;;;10.40;99.90;;;;;;4934852;29;20082;-72
2023/06/07 03:43:08;;;;;;;0.95;0.70;;;10.40;99.90;;;;;;4942745;29;20500;-72
2023/06/07 03:45:33;;;;;;;0.70;0.70;;;10.40;99.90;;;;;;4941092;29;20126;-72
2023/06/07 03:47:59;;;;;;;0.60;0.60;;;10.40;99.90;;;;;;4934619;29;20039;-73
2023/06/07 03:50:25;;;;;;;0.60;0.60;;;10.40;99.90;;;;;;4938252;28;20039;-73
2023/06/07 03:52:50;;;;;;;0.60;0.60;;;10.40;99.90;;;;;;4931894;29;20103;-72
2023/06/07 03:55:19;;;;;;;0.40;0.40;;;10.50;99.90;;;;;;4942527;29;20043;-72
2023/06/07 03:57:48;;;;;;;3.10;1.25;;;10.50;99.90;;;;;;4935655;29;20043;-72
2023/06/07 04:00:15;;;;;;;0.70;0.70;;;10.50;99.90;;;;;;4939513;28;20056;-73
2023/06/07 04:02:41;;;;;;;0.30;0.30;;;10.60;99.90;;;;;;4942472;29;20433;-73
2023/06/07 04:05:07;;;;;;;0.40;0.40;;;10.60;99.90;;;;;;4939911;29;20055;-72
2023/06/07 04:07:32;;;;;;;0.73;0.73;;;10.70;99.90;;;;;;4941545;29;20413;-73
2023/06/07 04:09:58;;;;;;;0.50;0.50;;;10.70;99.90;;;;;;4935403;28;20043;-73
2023/06/07 04:12:24;;;;;;;0.47;0.47;;;10.80;99.90;;;;;;4937339;29;20047;-73
2023/06/07 04:14:50;;;;;;;1.00;0.93;;;10.80;99.90;;;;;;4933248;29;20672;-72
2023/06/07 04:17:15;;;;;;;0.50;0.50;;;10.80;99.90;;;;;;4939109;29;20396;-72
2023/06/07 04:19:41;;;;;;;7.90;1.95;;;10.90;99.90;;;;;;4938307;29;20047;-72
2023/06/07 04:22:06;;;;;;;0.82;0.82;;;10.90;99.90;;;;;;4937619;29;20035;-73
2023/06/07 04:24:32;;;;;;;1.95;0.88;;;11.00;99.90;;;;;;4933983;29;20044;-73
2023/06/07 04:26:58;;;;;;;0.93;0.90;;;11.10;99.90;;;;;;4932247;28;20110;-73
2023/06/07 04:29:26;;;;;;;0.52;0.52;;;11.20;99.90;;;;;;4935907;29;20122;-72
2023/06/07 04:31:56;;;;;;;;;;;11.20;99.90;;;;;;4937486;29;20042;-73
2023/06/07 04:34:23;;;;;;;0.40;0.40;;;11.30;99.90;;;;;;4930939;28;20041;-73
2023/06/07 04:36:49;;;;;;;0.88;0.52;;;11.30;99.90;;;;;;4937453;29;20046;-72
2023/06/07 04:39:16;;;;;;;1.95;0.82;;;11.30;99.90;;;;;;4937879;29;20043;-73
2023/06/07 04:41:42;;;;;;;1.02;1.00;;;11.40;99.90;;;;;;4935472;29;20421;-73
2023/06/07 04:44:08;;;;;;;0.70;0.70;;;11.50;99.90;;;;;;4936437;29;20047;-73
2023/06/07 04:46:34;;;;;;;0.90;0.90;;;11.50;99.90;;;;;;4936697;28;20076;-72
2023/06/07 04:49:00;;;;;;;0.80;0.68;;;11.50;99.90;;;;;;4937350;28;20051;-72
2023/06/07 04:51:29;;;;;;;0.60;0.60;;;11.60;99.90;;;;;;4939391;29;20148;-72
2023/06/07 04:54:04;;;;;;;0.75;0.75;;;11.60;99.90;;;;;;4940496;28;20110;-73
2023/06/07 04:56:30;;;;;;;1.63;1.52;;;11.60;99.90;;;;;;4934655;29;20054;-72
2023/06/07 04:58:57;;;;;;;1.60;1.00;;;11.70;99.90;;;;;;4939718;28;20055;-72
2023/06/07 05:01:24;;;;;;;0.70;0.70;;;11.70;99.90;;;;;;4934033;29;20138;-72
2023/06/07 05:03:57;;;;;;;1.10;1.10;;;11.80;99.90;;;;;;4936566;28;20054;-72
2023/06/07 05:06:22;;;;;;;0.80;0.80;;;11.90;99.90;;;;;;4943511;29;20440;-73
2023/06/07 05:08:48;;;;;;;0.50;0.43;;;11.90;99.90;;;;;;4935434;29;20043;-72
2023/06/07 05:11:13;;;;;;;1.02;0.70;;;12.00;99.90;;;;;;4940847;29;20047;-72
2023/06/07 05:13:39;;;;;;;0.63;0.63;;;12.10;99.90;;;;;;4935176;28;20499;-72
2023/06/07 05:16:06;;;;;;;0.85;0.85;;;12.20;99.90;;;;;;4934222;29;20047;-73
2023/06/07 05:18:31;;;;;;;1.67;1.40;;;12.30;99.90;;;;;;4937510;29;20062;-72
2023/06/07 05:20:57;;;;;;;0.88;0.88;;;12.30;99.90;;;;;;4948477;29;20047;-72
2023/06/07 05:23:23;;;;;;;0.50;0.50;;;12.30;99.90;;;;;;4941918;28;20039;-72
2023/06/07 05:25:48;;;;;;;0.45;0.45;;;12.40;99.90;;;;;;4943773;29;20056;-72
2023/06/07 05:28:14;;;;;;;1.20;0.93;;;12.50;99.90;;;;;;4946638;28;20139;-72
2023/06/07 05:30:40;;;;;;;0.60;0.60;;;12.60;99.90;;;;;;4935966;29;20484;-72
2023/06/07 05:33:06;;;;;;;0.20;0.20;;;12.70;99.90;;;;;;4930325;29;20079;-72
2023/06/07 05:35:32;;;;;;;1.20;1.20;;;12.80;99.90;;;;;;4930780;29;20481;-72
2023/06/07 05:37:58;;;;;;;0.43;0.43;;;12.90;99.90;;;;;;4933999;29;20115;-72
2023/06/07 05:40:23;;;;;;;2.63;1.60;;;12.90;99.90;;;;;;4940910;29;20048;-72
2023/06/07 05:42:50;;;;;;;1.40;1.40;;;12.90;99.90;;;;;;4941101;29;20043;-72
2023/06/07 05:45:16;;;;;;;0.90;0.90;;;12.90;99.90;;;;;;4941870;29;20536;-73
2023/06/07 05:47:45;;;;;;;1.50;1.40;;;12.90;99.90;;;;;;4944530;28;20047;-72
2023/06/07 05:50:11;;;;;;;0.90;0.90;;;12.90;99.90;;;;;;4930154;29;20040;-72
2023/06/07 05:52:37;;;;;;;2.55;2.35;;;12.80;99.90;;;;;;4942561;29;20054;-71
2023/06/07 05:55:03;;;;;;;1.63;1.52;;;12.80;99.90;;;;;;4941692;29;20054;-71
2023/06/07 05:57:29;;;;;;;0.73;0.73;;;12.80;99.90;;;;;;4943601;29;20047;-72
2023/06/07 05:59:55;;;;;;;1.35;1.25;;;12.80;99.90;;;;;;4938118;29;20138;-72
2023/06/07 06:02:23;;;;;;;1.05;0.95;;;12.90;99.90;;;;;;4934523;29;20848;-72
2023/06/07 06:04:49;;;;;;;1.08;1.08;;;12.90;99.90;;;;;;4941912;29;20494;-72
2023/06/07 06:07:15;;;;;;;6.13;1.73;;;13.10;99.90;;;;;;4928220;29;20047;-73
2023/06/07 06:09:41;;;;;;;0.57;0.57;;;13.20;99.90;;;;;;4947524;29;20061;-72
2023/06/07 06:12:07;;;;;;;1.05;1.05;;;13.30;99.90;;;;;;4936191;29;20390;-72
2023/06/07 06:14:33;;;;;;;2.47;2.17;;;13.60;99.90;;;;;;4940526;28;20121;-72
2023/06/07 06:16:58;;;;;;;6.13;2.75;;;13.70;99.90;;;;;;4943295;29;20047;-72
2023/06/07 06:19:25;;;;;;;1.20;1.20;;;13.80;99.90;;;;;;4928099;29;20056;-72
2023/06/07 06:21:51;;;;;;;1.02;0.98;;;13.80;99.90;;;;;;4926206;29;20051;-72
2023/06/07 06:24:16;;;;;;;1.02;1.02;;;14.00;99.90;;;;;;4934403;29;20094;-72
2023/06/07 06:26:42;;;;;;;0.98;0.98;;;14.10;99.90;;;;;;4933032;29;20046;-72
2023/06/07 06:29:07;;;;;;;0.93;0.93;;;14.30;99.90;;;;;;4935865;29;20079;-72
2023/06/07 06:31:33;;;;;;;0.82;0.82;;;14.50;99.90;;;;;;4932940;29;20410;-72
2023/06/07 06:33:59;;;;;;;0.60;0.60;;;14.80;99.90;;;;;;4939605;29;20035;-72
2023/06/07 06:36:26;;;;;;;0.88;0.88;;;15.20;99.90;;;;;;4933914;29;20046;-72
2023/06/07 06:38:52;;;;;;;0.70;0.70;;;15.30;99.90;;;;;;4936076;29;20050;-73
2023/06/07 06:41:17;;;;;;;0.65;0.65;;;15.60;99.90;;;;;;4941050;29;20048;-73
2023/06/07 06:43:43;;;;;;;1.27;1.23;;;15.80;99.90;;;;;;4928781;29;20111;-73
2023/06/07 06:46:09;;;;;;;3.70;1.95;;;16.10;99.90;;;;;;4929527;29;20406;-73
2023/06/07 06:48:37;;;;;;;1.67;1.40;;;16.10;99.90;;;;;;4940534;29;20044;-73
2023/06/07 06:51:02;;;;;;;4.57;2.28;;;15.90;99.90;;;;;;4928954;29;20052;-73
2023/06/07 06:53:28;;;;;;;1.58;1.48;;;15.80;99.90;;;;;;4930464;29;20098;-72
2023/06/07 06:55:53;;;;;;;1.48;1.38;;;15.80;99.90;;;;;;4927393;29;20050;-73
2023/06/07 06:58:19;;;;;;;0.52;0.52;;;15.80;99.90;;;;;;4940096;29;20044;-73
2023/06/07 07:00:45;;;;;;;1.10;1.10;;;15.80;99.90;;;;;;4940653;29;20059;-73
2023/06/07 07:03:10;;;;;;;0.95;0.95;;;15.80;99.90;;;;;;4939064;29;20099;-73
2023/06/07 07:05:36;;;;;;;0.70;0.70;;;15.90;99.90;;;;;;4933677;29;20049;-72
2023/06/07 07:08:06;;;;;;;1.77;1.67;;;16.00;99.90;;;;;;4933436;29;20079;-73
2023/06/07 07:10:32;;;;;;;4.90;1.75;;;16.10;99.90;;;;;;4911628;29;20071;-73
2023/06/07 07:12:58;;;;;;;8.68;2.90;;;16.30;99.90;;;;;;4930351;28;20135;-73
2023/06/07 07:15:24;;;;;;;1.17;1.08;;;16.20;99.90;;;;;;4929880;29;20122;-73
2023/06/07 07:17:50;;;;;;;1.45;1.35;;;16.30;99.90;;;;;;4938788;29;20039;-73
2023/06/07 07:20:17;;;;;;;5.80;1.63;;;16.30;99.90;;;;;;4942446;29;20047;-73
2023/06/07 07:22:44;;;;;;;0.93;0.90;;;16.40;99.90;;;;;;4931377;29;20502;-73
2023/06/07 07:25:11;;;;;;;1.23;1.23;;;16.60;99.90;;;;;;4938425;28;20055;-73
2023/06/07 07:27:37;;;;;;;2.63;1.40;;;16.60;99.90;;;;;;4934597;29;20126;-73
2023/06/07 07:30:04;;;;;;;0.95;0.95;;;16.80;99.90;;;;;;4930918;28;20039;-73
2023/06/07 07:32:30;;;;;;;1.95;1.85;;;16.90;99.90;;;;;;4926837;29;20055;-73
2023/06/07 07:34:56;;;;;;;1.13;1.13;;;17.00;99.90;;;;;;4934520;29;20480;-73
2023/06/07 07:37:21;;;;;;;2.75;2.15;;;17.10;99.90;;;;;;4927296;29;20051;-72
2023/06/07 07:39:47;;;;;;;1.67;1.58;;;17.20;99.90;;;;;;4934095;29;20127;-73
2023/06/07 07:42:13;;;;;;;1.65;1.55;;;17.20;99.90;;;;;;4932679;29;20052;-73
2023/06/07 07:44:39;;;;;;;2.35;2.15;;;17.30;99.90;;;;;;4940186;29;20126;-72
2023/06/07 07:47:05;;;;;;;0.57;0.57;;;17.30;99.90;;;;;;4930594;29;20050;-73
2023/06/07 07:49:31;;;;;;;1.42;1.35;;;17.50;99.90;;;;;;4927861;29;20090;-73
2023/06/07 07:51:57;;;;;;;1.35;1.25;;;17.70;99.90;;;;;;4933903;29;20541;-73
2023/06/07 07:54:22;;;;;;;1.00;1.00;;;18.00;99.90;;;;;;4931464;29;20107;-73
2023/06/07 07:56:48;;;;;;;1.08;1.08;;;18.30;99.90;;;;;;4925444;29;20035;-74
2023/06/07 07:59:14;;;;;;;1.30;1.15;;;18.60;99.90;;;;;;4930347;29;20047;-73
2023/06/07 08:01:39;;;;;;;2.53;1.20;;;18.70;99.90;;;;;;4934947;29;20517;-73
2023/06/07 08:04:05;;;;;;;1.08;1.08;;;18.70;99.90;;;;;;4938253;29;20054;-73
2023/06/07 08:06:32;;;;;;;0.68;0.68;;;18.90;99.90;;;;;;4924122;29;20044;-73
2023/06/07 08:08:58;;;;;;;0.73;0.63;;;19.00;99.90;;;;;;4932028;29;20066;-73
2023/06/07 08:11:25;;;;;;;2.65;0.80;;;19.10;99.90;;;;;;4927541;29;20035;-73
2023/06/07 08:13:51;;;;;;;1.75;1.42;;;19.20;99.90;;;;;;4930278;29;20059;-73
2023/06/07 08:16:16;;;;;;;1.17;1.17;;;19.30;99.90;;;;;;4931818;29;20051;-74
2023/06/07 08:18:44;;;;;;;0.93;0.93;;;19.60;99.90;;;;;;4930520;29;20058;-73
2023/06/07 08:21:11;;;;;;;0.73;0.73;;;19.60;99.90;;;;;;4935844;29;20134;-73
2023/06/07 08:23:37;;;;;;;0.93;0.70;;;19.80;99.90;;;;;;4929032;29;20052;-73
2023/06/07 08:26:03;;;;;;;2.58;1.27;;;20.00;99.90;;;;;;4936453;28;20527;-73
2023/06/07 08:28:28;;;;;;;0.80;0.80;;;20.30;99.90;;;;;;4931377;29;20039;-73
2023/06/07 08:30:54;;;;;;;0.95;0.77;;;20.70;99.90;;;;;;4921916;29;20200;-74
2023/06/07 08:33:19;;;;;;;0.98;0.95;;;20.50;99.90;;;;;;4943798;29;20115;-74
2023/06/07 08:35:45;;;;;;;0.40;0.40;;;20.50;99.90;;;;;;4930922;29;20518;-73
2023/06/07 08:38:11;;;;;;;2.53;1.38;;;20.50;99.90;;;;;;4940731;29;20039;-74
2023/06/07 08:40:36;;;;;;;2.25;1.65;;;20.70;99.90;;;;;;4928045;29;20060;-74
2023/06/07 08:43:02;;;;;;;2.25;1.30;;;21.00;99.90;;;;;;4933984;29;20047;-73
2023/06/07 08:45:28;;;;;;;0.40;0.40;;;21.10;99.90;;;;;;4917921;29;20102;-74
2023/06/07 08:47:58;;;;;;;0.50;0.50;;;21.10;94.50;;;;;;4925337;29;20048;-73
2023/06/07 08:50:24;;;;;;;0.70;0.63;;;20.80;93.30;;;;;;4923261;29;20079;-74
2023/06/07 08:52:54;;;;;;;0.52;0.52;;;20.90;99.60;;;;;;4930115;29;20051;-73
2023/06/07 08:55:21;;;;;;;0.90;0.90;;;20.90;95.00;;;;;;4938150;29;20512;-73
2023/06/07 08:57:52;;;;;;;;;;;21.00;96.80;;;;;;4941952;28;21202;-73
2023/06/07 09:00:25;;;;;;;1.50;1.40;;;21.10;92.80;;;;;;4927906;29;20367;-73
2023/06/07 09:02:52;;;;;;;0.70;0.70;;;20.80;93.10;;;;;;4939410;29;20051;-73
2023/06/07 09:05:22;;;;;;;0.68;0.63;;;21.00;94.00;;;;;;4927614;29;20511;-73
2023/06/07 09:07:48;;;;;;;0.60;0.60;;;21.00;93.90;;;;;;4936997;29;20127;-73
2023/06/07 09:10:17;;;;;;;0.50;0.50;;;21.10;93.90;;;;;;4933095;29;20078;-73
2023/06/07 09:12:46;;;;;;;1.40;0.77;;;21.20;95.30;;;;;;4936140;29;20047;-73
2023/06/07 09:15:20;;;;;;;0.75;0.70;;;21.20;93.60;;;;;;4933586;29;20052;-73
2023/06/07 09:17:59;;;;;;;0.65;0.65;;;21.20;90.90;;;;;;4935920;29;20063;-73
2023/06/07 09:20:27;;;;;;;0.77;0.77;;;21.40;91.60;;;;;;4936006;29;20066;-73
2023/06/07 09:23:09;;;;;;;0.60;0.60;;;21.70;95.70;;;;;;4928095;29;20051;-73
2023/06/07 09:25:37;;;;;;;1.30;1.02;;;21.90;85.80;;;;;;4929666;29;20044;-73
2023/06/07 09:28:14;;;;;;;0.68;0.68;;;22.10;90.80;;;;;;4942030;29;20044;-72
2023/06/07 09:30:54;;;;;;;3.78;1.58;;;22.20;89.20;;;;;;4930232;29;20114;-73
2023/06/07 09:33:30;;;;;;;2.20;1.08;;;22.40;91.20;;;;;;4930442;29;20039;-73
2023/06/07 09:36:07;;;;;;;0.60;0.60;;;22.50;89.90;;;;;;4932908;28;20040;-72
2023/06/07 09:38:33;;;;;;;0.80;0.80;;;22.30;84.50;;;;;;4923229;29;20477;-72
2023/06/07 09:41:00;;;;;;;1.75;1.35;;;22.00;83.40;;;;;;4926809;29;20047;-72
2023/06/07 09:43:26;;;;;;;1.63;1.52;;;21.70;84.00;;;;;;4943158;29;20126;-72
2023/06/07 09:45:56;;;;;;;0.50;0.50;;;21.90;86.60;;;;;;4932554;28;20127;-72
2023/06/07 09:48:21;;;;;;;0.65;0.65;;;21.90;85.70;;;;;;4937511;29;20424;-72
2023/06/07 09:50:57;;;;;;;0.70;0.70;;;22.00;87.00;;;;;;4929370;29;20047;-72
2023/06/07 09:53:23;;;;;;;1.33;1.23;;;21.90;87.10;;;;;;4941485;29;20445;-71
2023/06/07 09:55:49;;;;;;;1.00;1.00;;;21.80;84.80;;;;;;4939530;29;20058;-71
2023/06/07 09:58:22;;;;;;;1.00;1.00;;;21.80;87.80;;;;;;4940330;29;20124;-72
2023/06/07 10:00:48;;;;;;;0.77;0.77;;;21.80;83.00;;;;;;4938594;29;20059;-72
2023/06/07 10:03:15;;;;;;;1.60;1.50;;;21.80;82.80;;;;;;4937558;29;20051;-69
2023/06/07 10:05:44;;;;;;;0.80;0.80;;;21.70;84.80;;;;;;4935791;29;20059;-69
2023/06/07 10:08:11;;;;;;;2.20;2.00;;;21.70;86.40;;;;;;4939733;29;20160;-69
2023/06/07 10:10:40;;;;;;;1.65;1.23;;;22.00;88.60;;;;;;4936057;29;20126;-69
2023/06/07 10:13:08;;;;;;;1.10;0.75;;;22.20;82.90;;;;;;4935594;29;20069;-69
2023/06/07 10:15:35;;;;;;;1.23;0.90;;;22.30;86.00;;;;;;4942333;29;20048;-71
2023/06/07 10:18:12;;;;;;;0.82;0.82;;;22.20;80.20;;;;;;4943567;29;20137;-71
2023/06/07 10:20:51;;;;;;;1.75;1.58;;;22.00;80.30;;;;;;4941951;29;20063;-72
2023/06/07 10:23:30;;;;;;;0.55;0.55;;;22.00;83.40;;;;;;4933144;29;20062;-72
2023/06/07 10:26:02;;;;;;;0.60;0.60;;;22.20;83.20;;;;;;4939685;29;20075;-72
2023/06/07 10:28:46;;;;;;;0.32;0.32;;;22.00;81.20;;;;;;4930772;28;20044;-72
2023/06/07 10:31:15;;;;;;;0.70;0.70;;;22.20;83.70;;;;;;4933764;29;20058;-71
2023/06/07 10:33:43;;;;;;;0.60;0.60;;;22.50;86.20;;;;;;4940871;29;20147;-71
2023/06/07 10:36:09;;;;;;;0.68;0.68;;;22.60;82.30;;;;;;4941528;29;20408;-71
2023/06/07 10:38:35;;;;;;;1.15;1.10;;;22.40;81.40;;;;;;4934423;29;20123;-71
2023/06/07 10:41:05;;;;;;;0.38;0.38;;;22.50;79.80;;;;;;4939497;29;20146;-71
2023/06/07 10:43:32;;;;;;;0.60;0.60;;;22.90;81.30;;;;;;4940229;29;20118;-72
2023/06/07 10:46:21;;;;;;;0.75;0.75;;;22.90;76.70;;;;;;4941069;29;20055;-72
2023/06/07 10:48:47;;;;;;;0.95;0.95;;;23.20;79.30;;;;;;4955879;28;20059;-72
2023/06/07 10:51:13;;;;;;;0.60;0.60;;;23.10;72.90;;;;;;4944738;29;20099;-72
2023/06/07 10:53:59;;;;;;;0.60;0.60;;;23.40;78.40;;;;;;4935331;29;20039;-72
2023/06/07 10:56:35;;;;;;;0.60;0.60;;;23.40;72.70;;;;;;4930573;28;20056;-72
2023/06/07 10:59:21;;;;;;;1.10;1.10;;;23.30;74.90;;;;;;4940499;29;20060;-72
2023/06/07 11:01:48;;;;;;;0.75;0.75;;;23.00;74.70;;;;;;4932858;29;20094;-71
2023/06/07 11:04:39;;;;;;;1.77;1.48;;;23.00;76.10;;;;;;4945194;29;20511;-71
2023/06/07 11:07:24;;;;;;;0.60;0.60;;;22.80;75.20;;;;;;4927627;29;20066;-72
2023/06/07 11:10:10;;;;;;;1.90;1.20;;;22.80;75.60;;;;;;4935273;29;20103;-72
2023/06/07 11:12:35;;;;;;;8.95;2.05;;;23.00;74.50;;;;;;4931609;29;20083;-71
2023/06/07 11:15:21;;;;;;;2.47;1.88;;;22.90;72.60;;;;;;4928728;29;20685;-72
2023/06/07 11:17:55;;;;;;;1.50;1.40;;;23.00;75.10;;;;;;4928321;29;20079;-72
2023/06/07 11:20:37;;;;;;;1.75;1.65;;;23.10;76.00;;;;;;4936623;29;20505;-72
2023/06/07 11:23:24;;;;;;;1.30;1.20;;;23.60;74.30;;;;;;4932655;29;20519;-71
2023/06/07 11:26:06;;;;;;;1.55;0.85;;;23.80;71.30;;;;;;4946229;29;20035;-72
2023/06/07 11:28:33;;;;;;;1.10;0.80;;;23.70;74.90;;;;;;4927443;29;20040;-72
2023/06/07 11:31:00;;;;;;;0.93;0.93;;;23.90;71.80;;;;;;4937804;29;20055;-72
2023/06/07 11:33:27;;;;;;;1.55;1.45;;;24.20;75.40;;;;;;4938479;29;20078;-72
2023/06/07 11:35:54;;;;;;;0.68;0.68;;;24.40;71.10;;;;;;4941151;28;20055;-69
2023/06/07 11:38:20;;;;;;;2.42;1.65;;;24.50;70.80;;;;;;4939354;29;20476;-69
2023/06/07 11:40:47;;;;;;;0.70;0.55;;;24.50;66.10;;;;;;4940389;29;20488;-69
2023/06/07 11:43:14;;;;;;;1.40;1.40;;;24.40;67.40;;;;;;4942310;29;20489;-69
2023/06/07 11:45:43;;;;;;;2.25;0.73;;;24.20;70.00;;;;;;4931120;29;20051;-70
2023/06/07 11:48:09;;;;;;;0.40;0.40;;;24.20;68.10;;;;;;4938821;29;20075;-71
2023/06/07 11:50:37;;;;;;;1.02;1.02;;;24.20;68.20;;;;;;4939987;29;20078;-71
2023/06/07 11:53:03;;;;;;;1.75;1.02;;;24.40;68.30;;;;;;4930797;29;20564;-71
2023/06/07 11:55:28;;;;;;;1.85;1.75;;;24.40;67.10;;;;;;4942827;29;20106;-70
2023/06/07 11:57:55;;;;;;;2.40;2.10;;;24.40;67.40;;;;;;4943858;29;20047;-71
2023/06/07 12:00:23;;;;;;;0.70;0.70;;;24.60;71.60;;;;;;4932008;29;20143;-71
2023/06/07 12:02:51;;;;;;;1.27;1.25;;;24.50;65.90;;;;;;4932455;29;20039;-71
2023/06/07 12:05:17;;;;;;;1.08;0.75;;;24.40;67.20;;;;;;4938259;29;20047;-71
2023/06/07 12:07:43;;;;;;;2.47;1.60;;;24.40;66.20;;;;;;4932238;28;20134;-71
2023/06/07 12:10:10;;;;;;;0.60;0.57;;;24.30;66.60;;;;;;4939279;29;20122;-71
2023/06/07 12:12:37;;;;;;;1.70;1.60;;;24.40;67.00;;;;;;4939639;29;20043;-71
2023/06/07 12:15:06;;;;;;;1.13;1.13;;;24.20;66.20;;;;;;4941608;29;20062;-71
2023/06/07 12:17:35;;;;;;;1.00;0.80;;;24.30;67.50;;;;;;4941448;29;20082;-71
2023/06/07 12:20:12;;;;;;;1.20;1.13;;;24.60;66.30;;;;;;4932201;28;20130;-71
2023/06/07 12:22:38;;;;;;;1.15;1.15;;;24.80;68.10;;;;;;4942416;29;20051;-71
2023/06/07 12:25:14;;;;;;;0.73;0.73;;;24.90;65.50;;;;;;4935445;28;20060;-71
2023/06/07 12:27:45;;;;;;;0.30;0.30;;;25.10;66.30;;;;;;4926206;29;20105;-71
2023/06/07 12:30:11;;;;;;;0.90;0.80;;;25.20;66.30;;;;;;4932330;29;20551;-71
2023/06/07 12:32:37;;;;;;;0.63;0.63;;;25.00;67.50;;;;;;4931579;29;20131;-71
2023/06/07 12:35:05;;;;;;;0.52;0.52;;;25.00;66.80;;;;;;4930956;29;20187;-71
2023/06/07 12:37:37;;;;;;;1.20;1.20;;;25.20;64.40;;;;;;4932901;29;20093;-71
2023/06/07 12:40:07;;;;;;;0.50;0.50;;;25.00;63.00;;;;;;4939118;29;20497;-71
2023/06/07 12:42:34;;;;;;;1.38;0.98;;;24.80;64.70;;;;;;4944914;29;20055;-71
2023/06/07 12:45:04;;;;;;;1.27;1.27;;;25.00;65.20;;;;;;4934837;29;20050;-71
2023/06/07 12:47:29;;;;;;;0.43;0.43;;;25.10;64.70;;;;;;4937762;29;20055;-71
2023/06/07 12:49:55;;;;;;;0.52;0.52;;;25.40;62.90;;;;;;4938077;29;20515;-71
2023/06/07 12:52:20;;;;;;;0.77;0.77;;;25.60;64.50;;;;;;4931931;29;20146;-71